Tiempo atmosférico en la estación meteorológica de Ocaña, Toledo (733 m.)



Fecha
DESCASC
Temp. máxima en grados centígrados (hora)
DESCASC
Temp. mínima en grados centígrados (hora)
DESCASC
Temp. media en grados centígrados
DESCASC
Racha de viento máxima en m/sg (hora)
DESCASC
Velocidad máxima media en intervalos de 10 minutos(hora)
DESCASC
Precipitaciones diarias en mm
DESCASC
Precipitaciones de 00:00 a 06:00 en mm
DESCASC
Precipitaciones de 06:00 a 12:00 en mm
DESCASC
Precipitaciones de 12:00 a 18:00 en mm
DESCASC
Precipitaciones de 18:00 a 24:00 en mm
DESCASC
27-01-2020 9.9 (14:20) 0.5 (05:00) 5.2 9.44 (13:10) 6.67 (13:10) 0 0 0 0 0
26-01-2020 10.5 (16:00) 1.8 (23:59) 6.1 6.67 (06:20) 3.61 (06:20) 0 0 0 0 0
25-01-2020 8 (12:10) 5.1 (00:00) 6.5 8.33 (12:20) 6.11 (13:00) 4.2 2.4 0 1.2 0.6
24-01-2020 8.6 (15:30) 4.8 (00:00) 6.7 8.89 (04:20) 6.11 (04:50) 1.2 0 1.2 0 0
23-01-2020 10.5 (16:10) -0.1 (00:00) 5.2 8.06 (11:10) 6.11 (11:20) 0 0 0 0 0
22-01-2020 10.1 (15:20) 2.2 (00:00) 6.2 11.39 (13:00) 7.5 (12:50) 0.6 0 0.6 0 0
21-01-2020 6.7 (15:10) 2.2 (00:00) 4.4 15 (16:00) 10.56 (16:00) 1.2 0 0 1.2 0
20-01-2020 5.8 (15:20) 1 (00:00) 3.4 16.11 (17:00) 11.39 (15:30) 0 0 0 0 0
19-01-2020 8.2 (00:00) 2.3 (00:00) 5.2 18.89 (14:40) 13.61 (14:30) 0.2 0 0 0.2 0
18-01-2020 9.8 (15:50) 3.8 (00:00) 6.8 10 (22:10) 6.67 (14:20) 1.6 0 1.6 0 0
17-01-2020 12 (16:10) 2.6 (00:00) 7.3 9.72 (11:10) 5.56 (11:50) 0 0 0 0 0
16-01-2020 14.5 (15:10) 4.8 (00:00) 9.7 10.28 (16:20) 7.78 (16:20) 0 0 0 0 0
15-01-2020 11 (15:00) -0.1 (00:00) 5.4 6.94 (10:40) 5.28 (10:30) 0 0 0 0 0
14-01-2020 9.4 (15:40) -2.6 (-00:0) 3.4 6.11 (15:50) 3.33 (16:30) 0 0 0 0 0
13-01-2020 8.8 (16:00) -4.1 (-00:0) 2.4 4.17 (16:10) 2.78 (12:00) 0 0 0 0 0
12-01-2020 9 (16:00) -4.1 (08:20) 2.5 6.11 (15:10) 3.06 (15:20) 0 0 0 0 0
11-01-2020 9.9 (16:10) -1.7 (-00:0) 4.1 6.11 (01:10) 3.89 (01:10) 0 0 0 0 0
10-01-2020 10.3 (15:30) 0.9 (00:00) 5.6 9.72 (16:40) 6.67 (16:40) 0 0 0 0 0
09-01-2020 10.2 (14:30) 0.4 (00:00) 5.3 6.11 (10:50) 4.44 (10:50) 0 0 0 0 0
08-01-2020 15.6 (16:00) -0.1 (00:00) 7.8 5.83 (21:20) 4.17 (23:10) 0 0 0 0 0
07-01-2020 13.2 (16:00) -0.8 (-00:0) 6.2 2.5 (16:20) 1.67 (00:40) 0 0 0 0 0
06-01-2020 13.5 (17:20) -1.4 (-00:0) 6.1 3.61 (04:00) 3.33 (03:50) 0 0 0 0 0
05-01-2020 11.7 (16:20) -2.4 (-00:0) 4.6 2.5 (07:40) 2.22 (07:40) 0.2 0 0.2 0 0
04-01-2020 10.1 (16:10) -1.6 (-00:0) 4.3 5 (10:30) 3.33 (14:30) 0.2 0.2 0 0 0
03-01-2020 6.1 (13:30) -1.3 (-00:0) 2.4 5 (15:10) 2.5 (14:00) 0 0 0 0 0
02-01-2020 12.2 (16:20) -2 (-00:0) 5.1 4.17 (10:50) 2.5 (04:30) 0.2 0 0.2 0 0
01-01-2020 12.8 (15:40) -2.4 (-00:0) 5.2 2.78 (05:30) 1.67 (07:30) 0.2 0 0.2 0 0
31-12-2019 -- (--) -- (--) -- -- (--) -- (--) 0 0 0 0 0
30-12-2019 -- (--) -- (--) -- -- (--) -- (--) 0 0 0 0 0

Gráficas

Temp. máximas Temp. mínimas Temp. medias Precipitaciones Rachas de viento máximas Velocidades máximas media en intervalos de 10 minutos

Datos horarios

Fecha y hora oficial Temperatura (ºC) Velocidad del viento (km/h) Dirección del viento Racha (km/h) Dirección de racha Precipitación (mm) Presión (hPa) Tendencia (hPa) Humedad (%)
2020-01-28 23:00:00 10 13 Oeste 24 Sudoeste 0 -- -- 94
2020-01-28 22:00:00 9.7 12 Oeste 22 Sudoeste 0 -- -- 96
2020-01-28 21:00:00 9.4 10 Oeste 22 Oeste 0 -- -- 97
2020-01-28 20:00:00 9.8 14 Oeste 25 Oeste 0 -- -- 96
2020-01-28 19:00:00 10.1 7 Oeste 21 Oeste 0 -- -- 95
2020-01-28 18:00:00 10.7 12 Oeste 28 Oeste 0 -- -- 94
2020-01-28 17:00:00 11.4 12 Oeste 22 Oeste 0.2 -- -- 91
2020-01-28 16:00:00 11.3 14 Oeste 35 Oeste 0.4 -- -- 92
2020-01-28 15:00:00 12.3 18 Oeste 38 Oeste 0 -- -- 82
2020-01-28 14:00:00 12.4 19 Oeste 36 Oeste 0 -- -- 83
2020-01-28 13:00:00 12.1 18 Oeste 31 Sudoeste 0 -- -- 83
2020-01-28 12:00:00 11.3 15 Sudoeste 27 Sudoeste 0 -- -- 87
2020-01-28 11:00:00 9.9 15 Sudoeste 22 Sudoeste 0 -- -- 92
2020-01-28 10:00:00 9.1 13 Sudoeste 21 Sudoeste 0 -- -- 95
2020-01-28 09:00:00 8.4 15 Sudoeste 19 Sur 0 -- -- 94
2020-01-28 08:00:00 8.6 11 Sudoeste 15 Sudoeste 0 -- -- 95
2020-01-28 07:00:00 8.8 8 Oeste 24 Oeste 0 -- -- 94
2020-01-28 06:00:00 8.8 12 Oeste 21 Oeste 0 -- -- 94
2020-01-28 05:00:00 8.7 13 Oeste 29 Sudoeste 0 -- -- 93
2020-01-28 04:00:00 8.3 14 Sudoeste 26 Sudoeste 0 -- -- 94
2020-01-28 03:00:00 8.4 21 Sudoeste 28 Sudoeste 0 -- -- 93
2020-01-28 02:00:00 8.3 15 Sudoeste 21 Sudoeste 0 -- -- 92
2020-01-28 01:00:00 8.3 13 Sudoeste 20 Sudoeste 0 -- -- 92
2020-01-28 00:00:00 8.3 14 Sudoeste 27 Sudoeste 0 -- -- 91
2020-01-27 23:00:00 7.6 8 Sur 14 Sudoeste 0 -- -- 91
2020-01-27 22:00:00 7.3 4 Sur 14 Sudoeste 0 -- -- 90
2020-01-27 21:00:00 7.8 11 Sudoeste 17 Sudoeste 0 -- -- 88
2020-01-27 20:00:00 7.9 9 Sudoeste 15 Sudoeste 0 -- -- 90
2020-01-27 19:00:00 8.4 5 Oeste 15 Sudoeste 0 -- -- 88
2020-01-27 18:00:00 8.9 12 Sudoeste 19 Oeste 0 -- -- 84
2020-01-27 17:00:00 9.4 11 Oeste 23 Oeste 0 -- -- 82
2020-01-27 16:00:00 9.2 10 Oeste 23 Oeste 0 -- -- 83
2020-01-27 15:00:00 9.4 11 Oeste 30 Oeste 0 -- -- 77
2020-01-27 14:00:00 9.6 18 Sudoeste 34 Sudoeste 0 -- -- 76
2020-01-27 13:00:00 9.2 21 Sudoeste 33 Sudoeste 0 -- -- 78
2020-01-27 12:00:00 7.8 15 Sudoeste 21 Sudoeste 0 -- -- 92
2020-01-27 11:00:00 5.8 10 Sudoeste 15 Sudoeste 0 -- -- 99
2020-01-27 10:00:00 4 8 Sudoeste 12 Sur 0 -- -- 100
2020-01-27 09:00:00 2.4 8 Sur 12 Sudeste 0 -- -- 100
2020-01-27 08:00:00 1.1 8 Sudeste 12 Sudeste 0 -- -- 100
2020-01-27 07:00:00 1.1 8 Sudeste 10 Sudeste 0 -- -- 99
2020-01-27 06:00:00 1.1 3 Sur 12 Sur 0 -- -- 99
2020-01-27 05:00:00 0.5 6 Sur 9 Sur 0 -- -- 99
2020-01-27 04:00:00 0.8 2 Sur 4 Sur 0 -- -- 99
2020-01-27 03:00:00 1 0 Calma 6 Sudoeste 0 -- -- 99
2020-01-27 02:00:00 0.9 5 Sur 8 Sur 0 -- -- 99
2020-01-27 01:00:00 1.3 5 Sur 9 Sudoeste 0 -- -- 98
2020-01-27 00:00:00 1.8 8 Sudoeste 11 Sudoeste 0 -- -- 97
2020-01-26 23:00:00 3.4 5 Oeste 9 Oeste 0 -- -- 96
2020-01-26 22:00:00 3.1 4 Oeste 12 Oeste 0 -- -- 94
2020-01-26 21:00:00 4 7 Oeste 12 Noroeste 0 -- -- 93
2020-01-26 20:00:00 4.6 3 Oeste 13 Oeste 0 -- -- 90
2020-01-26 19:00:00 6.1 9 Oeste 19 Oeste 0 -- -- 85
2020-01-26 18:00:00 8.1 12 Oeste 22 Oeste 0 -- -- 83
2020-01-26 17:00:00 9.7 9 Oeste 23 Oeste 0 -- -- 73
2020-01-26 16:00:00 10.5 12 Oeste 22 Sudoeste 0 -- -- 67
2020-01-26 15:00:00 9.7 8 Oeste 20 Oeste 0 -- -- 72
2020-01-26 14:00:00 9.1 9 Oeste 21 Noroeste 0 -- -- 76
2020-01-26 13:00:00 9.3 10 Noroeste 21 Oeste 0 -- -- 76
2020-01-26 12:00:00 8.5 10 Noroeste 18 Noroeste 0 -- -- 83
2020-01-26 11:00:00 6.7 9 Oeste 18 Oeste 0 -- -- 100
2020-01-26 10:00:00 5.9 7 Noroeste 16 Oeste 0 -- -- 100
2020-01-26 09:00:00 5.7 6 Oeste 20 Oeste 0 -- -- 100
2020-01-26 08:00:00 5.7 10 Oeste 24 Oeste 0 -- -- 100
2020-01-26 07:00:00 5.9 12 Oeste 24 Oeste 0 -- -- 100
2020-01-26 06:00:00 5.9 10 Oeste 19 Oeste 0 -- -- 100
2020-01-26 05:00:00 5.8 5 Oeste 10 Oeste 0 -- -- 100
2020-01-26 04:00:00 5.7 5 Oeste 18 Oeste 0 -- -- 100
2020-01-26 03:00:00 5.3 10 Oeste 18 Oeste 0 -- -- 100
2020-01-26 02:00:00 6.3 6 Oeste 14 Oeste 0 -- -- 100
2020-01-26 01:00:00 6.5 7 Oeste 13 Oeste 0 -- -- 100
2020-01-26 00:00:00 6.3 4 Sudoeste 9 Sudoeste 0 -- -- 100
2020-01-25 23:00:00 5.8 3 Sur 9 Sudoeste 0 -- -- 99
2020-01-25 22:00:00 6.1 7 Sur 12 Sur 0.2 -- -- 99
2020-01-25 21:00:00 6.4 7 Sur 15 Sur 0 -- -- 99
2020-01-25 20:00:00 6.7 10 Sur 14 Sur 0.2 -- -- 98
2020-01-25 19:00:00 7.1 8 Sur 16 Sur 0.2 -- -- 96
2020-01-25 18:00:00 7.5 11 Sur 19 Sur 0 -- -- 95
2020-01-25 17:00:00 7.7 14 Sur 24 Sur 0 -- -- 96
2020-01-25 16:00:00 7.5 16 Sur 23 Sur 0.2 -- -- 97
2020-01-25 15:00:00 7.2 15 Sudeste 25 Sudeste 0.4 -- -- 97
2020-01-25 14:00:00 7.4 17 Sudeste 26 Sudeste 0.6 -- -- 97
2020-01-25 13:00:00 7.7 22 Sudeste 30 Sudeste 0 -- -- 96
2020-01-25 12:00:00 7.9 15 Sudeste 27 Sudeste 0 -- -- 97
2020-01-25 11:00:00 7.4 12 Sudeste 20 Sudeste 0 -- -- 96
2020-01-25 10:00:00 5.8 8 Sudeste 18 Sudeste 0 -- -- 98
2020-01-25 09:00:00 5.5 13 Sudeste 22 Sudeste 0 -- -- 98
2020-01-25 08:00:00 5.1 13 Sur 27 Sudeste 0 -- -- 99
2020-01-25 07:00:00 5.2 18 Sur 26 Sur 0 -- -- 99
2020-01-25 06:00:00 5.8 16 Sudeste 24 Sudeste 0 -- -- 99
2020-01-25 05:00:00 6 13 Sudeste 22 Sudeste 0.4 -- -- 99
2020-01-25 04:00:00 6 12 Sudeste 21 Sudeste 1.4 -- -- 99
2020-01-25 03:00:00 6.1 12 Sudeste 21 Sudeste 0.6 -- -- 98
2020-01-25 02:00:00 5.9 12 Sudeste 23 Sudeste 0 -- -- 97
2020-01-25 01:00:00 6 12 Sudeste 21 Sudeste 0 -- -- 97
2020-01-25 00:00:00 5.6 12 Este 22 Sudeste 0 -- -- 96
2020-01-24 23:00:00 4.9 10 Sudeste 17 Sudeste 0 -- -- 96
2020-01-24 22:00:00 5.5 9 Este 12 Este 0 -- -- 95
2020-01-24 21:00:00 5.5 7 Este 14 Este 0 -- -- 92
2020-01-24 20:00:00 6.5 11 Este 17 Este 0 -- -- 90
2020-01-24 19:00:00 7.8 11 Sudeste 20 Este 0 -- -- 85
2020-01-24 18:00:00 8.3 9 Sudeste 14 Sudeste 0 -- -- 85
2020-01-24 17:00:00 8.6 8 Sudeste 17 Sudeste 0 -- -- 83
2020-01-24 16:00:00 8.4 10 Sudeste 18 Sudeste 0 -- -- 86
2020-01-24 15:00:00 8.3 12 Sudeste 18 Sudeste 0 -- -- 88
2020-01-24 14:00:00 8 14 Sudeste 20 Sudeste 0 -- -- 91
2020-01-24 13:00:00 7.4 13 Sudeste 19 Sudeste 0 -- -- 94
2020-01-24 12:00:00 6.7 12 Sudeste 23 Sudeste 0 -- -- 97
2020-01-24 11:00:00 5.6 11 Sudeste 23 Sudeste 0 -- -- 98
2020-01-24 10:00:00 5 15 Sudeste 25 Sudeste 0.2 -- -- 98
2020-01-24 09:00:00 4.9 12 Sudeste 21 Sudeste 0.4 -- -- 98
2020-01-24 08:00:00 5.1 9 Sudeste 20 Sur 0.4 -- -- 97
2020-01-24 07:00:00 5.4 13 Sur 26 Sudeste 0.2 -- -- 95
2020-01-24 06:00:00 5.7 17 Sudeste 28 Sudeste 0 -- -- 94
2020-01-24 05:00:00 6 18 Sudeste 32 Sudeste 0 -- -- 94
2020-01-24 04:00:00 6 21 Sudeste 30 Sudeste 0 -- -- 94
2020-01-24 03:00:00 6 18 Sudeste 26 Sudeste 0 -- -- 94
2020-01-24 02:00:00 6.1 20 Sudeste 29 Sudeste 0 -- -- 94
2020-01-24 01:00:00 6.1 14 Sudeste 27 Sudeste 0 -- -- 93
2020-01-24 00:00:00 6.3 14 Sudeste 26 Este 0 -- -- 91
2020-01-23 23:00:00 6 15 Este 22 Este 0 -- -- 91
2020-01-23 22:00:00 5.6 13 Sudeste 19 Este 0 -- -- 90
2020-01-23 21:00:00 5.4 12 Este 17 Sudeste 0 -- -- 89
2020-01-23 20:00:00 6.4 12 Sudeste 20 Sudeste 0 -- -- 86
2020-01-23 19:00:00 6.8 8 Sudeste 13 Este 0 -- -- 83
2020-01-23 18:00:00 8.4 7 Sudeste 16 Sudeste 0 -- -- 77
2020-01-23 17:00:00 10 9 Sudeste 18 Sudeste 0 -- -- 71
2020-01-23 16:00:00 10.3 10 Sudeste 18 Sudeste 0 -- -- 71
2020-01-23 15:00:00 10.1 13 Sudeste 22 Sudeste 0 -- -- 75
2020-01-23 14:00:00 8.9 12 Sudeste 23 Sur 0 -- -- 83
2020-01-23 13:00:00 7.4 15 Sudeste 25 Sudeste 0 -- -- 91
2020-01-23 12:00:00 5.2 15 Sudeste 29 Este 0 -- -- 97
2020-01-23 11:00:00 3.4 21 Este 29 Este 0 -- -- 97
2020-01-23 10:00:00 1.8 10 Nordeste 16 Este 0 -- -- 97
2020-01-23 09:00:00 0.9 13 Este 18 Este 0 -- -- 96
2020-01-23 08:00:00 0.2 10 Este 14 Este 0 -- -- 96
2020-01-23 07:00:00 0.4 9 Este 13 Este 0 -- -- 95
2020-01-23 06:00:00 0.3 8 Este 12 Este 0 -- -- 94
2020-01-23 05:00:00 1.6 9 Este 19 Este 0 -- -- 93
2020-01-23 04:00:00 1.7 13 Este 19 Este 0 -- -- 94
2020-01-23 03:00:00 1.7 12 Este 19 Este 0 -- -- 94
2020-01-23 02:00:00 2 14 Este 18 Este 0 -- -- 95
2020-01-23 01:00:00 1.8 13 Este 16 Este 0 -- -- 94
2020-01-23 00:00:00 2.2 11 Este 17 Este 0 -- -- 94
2020-01-22 23:00:00 2.2 12 Este 16 Este 0 -- -- 94
2020-01-22 22:00:00 3.4 9 Este 20 Sudeste 0 -- -- 90
2020-01-22 21:00:00 4.3 11 Sudeste 17 Sudeste 0 -- -- 91
2020-01-22 20:00:00 4.5 8 Sudeste 13 Sudeste 0 -- -- 89
2020-01-22 19:00:00 6.1 6 Sudeste 11 Este 0 -- -- 84
2020-01-22 18:00:00 7.7 7 Este 11 Sudeste 0 -- -- 80
2020-01-22 17:00:00 8.8 9 Sudeste 21 Sudeste 0 -- -- 77
2020-01-22 16:00:00 9.9 15 Este 31 Este 0 -- -- 71
2020-01-22 15:00:00 9.3 17 Sudeste 32 Sudeste 0 -- -- 74
2020-01-22 14:00:00 9.3 21 Sudeste 35 Sudeste 0 -- -- 75
2020-01-22 13:00:00 8.3 23 Sudeste 41 Sudeste 0 -- -- 79
2020-01-22 12:00:00 7.1 21 Este 34 Este 0 -- -- 93
2020-01-22 11:00:00 5.6 19 Este 24 Este 0 -- -- 95
2020-01-22 10:00:00 3.9 17 Este 27 Nordeste 0.4 -- -- 94
2020-01-22 09:00:00 3.5 18 Este 31 Nordeste 0 -- -- 93
2020-01-22 08:00:00 3.5 25 Este 32 Este 0 -- -- 93
2020-01-22 07:00:00 3.6 22 Nordeste 30 Este 0.2 -- -- 93
2020-01-22 06:00:00 3.8 19 Nordeste 27 Nordeste 0 -- -- 91
2020-01-22 05:00:00 3.8 19 Nordeste 28 Nordeste 0 -- -- 91
2020-01-22 04:00:00 4.3 21 Nordeste 30 Nordeste 0 -- -- 89
2020-01-22 03:00:00 4.3 20 Nordeste 31 Nordeste 0 -- -- 90
2020-01-22 02:00:00 4.1 17 Nordeste 26 Nordeste 0 -- -- 89
2020-01-22 01:00:00 3.7 19 Nordeste 27 Nordeste 0 -- -- 90
2020-01-22 00:00:00 3.7 18 Nordeste 30 Nordeste 0 -- -- 91
2020-01-21 23:00:00 3.9 18 Nordeste 30 Nordeste 0 -- -- 90
2020-01-21 22:00:00 3.3 23 Nordeste 32 Nordeste 0 -- -- 92
2020-01-21 21:00:00 2.9 19 Nordeste 35 Este 0 -- -- 93
2020-01-21 20:00:00 2.9 24 Nordeste 37 Nordeste 0 -- -- 93
2020-01-21 19:00:00 3 23 Nordeste 32 Nordeste 0 -- -- 93
2020-01-21 18:00:00 3.1 23 Nordeste 41 Nordeste 0 -- -- 94
2020-01-21 17:00:00 3.5 28 Nordeste 47 Este 1.2 -- -- 94
2020-01-21 16:00:00 5.4 38 Nordeste 54 Nordeste 0 -- -- 77
2020-01-21 15:00:00 6.5 26 Nordeste 44 Nordeste 0 -- -- 67
2020-01-21 14:00:00 6.4 36 Nordeste 49 Nordeste 0 -- -- 66
2020-01-21 13:00:00 5.7 31 Nordeste 49 Nordeste 0 -- -- 69
2020-01-21 12:00:00 4.6 32 Nordeste 49 Nordeste 0 -- -- 72
2020-01-21 11:00:00 4.2 33 Nordeste 53 Nordeste 0 -- -- 73
2020-01-21 10:00:00 3.6 33 Nordeste 45 Nordeste 0 -- -- 76
2020-01-21 09:00:00 3.7 33 Nordeste 52 Nordeste 0 -- -- 72
2020-01-21 08:00:00 3.6 34 Nordeste 49 Nordeste 0 -- -- 73
2020-01-21 07:00:00 2.8 31 Nordeste 43 Nordeste 0 -- -- 74
2020-01-21 06:00:00 2.4 29 Nordeste 39 Nordeste 0 -- -- 75
2020-01-21 05:00:00 2.5 24 Nordeste 45 Nordeste 0 -- -- 74
2020-01-21 04:00:00 3.3 33 Nordeste 48 Nordeste 0 -- -- 71
2020-01-21 03:00:00 3.5 30 Nordeste 44 Nordeste 0 -- -- 70
2020-01-21 02:00:00 3.6 30 Nordeste 42 Norte 0 -- -- 70
2020-01-21 01:00:00 3.3 27 Nordeste 46 Nordeste 0 -- -- 71
2020-01-21 00:00:00 3.4 31 Nordeste 41 Nordeste 0 -- -- 70
2020-01-20 23:00:00 3.2 27 Nordeste 47 Nordeste 0 -- -- 70
2020-01-20 22:00:00 3 32 Nordeste 48 Nordeste 0 -- -- 70
2020-01-20 21:00:00 3.3 33 Nordeste 49 Nordeste 0 -- -- 68
2020-01-20 20:00:00 3.2 29 Nordeste 52 Nordeste 0 -- -- 69
2020-01-20 19:00:00 3.7 35 Nordeste 55 Nordeste 0 -- -- 66
2020-01-20 18:00:00 4.4 32 Nordeste 49 Nordeste 0 -- -- 63
2020-01-20 17:00:00 4.7 37 Nordeste 58 Nordeste 0 -- -- 63
2020-01-20 16:00:00 5 37 Nordeste 56 Nordeste 0 -- -- 61
2020-01-20 15:00:00 5.3 39 Nordeste 52 Nordeste 0 -- -- 58
2020-01-20 14:00:00 4.7 34 Nordeste 52 Nordeste 0 -- -- 57
2020-01-20 13:00:00 3.6 32 Nordeste 51 Nordeste 0 -- -- 54
2020-01-20 12:00:00 2.7 33 Nordeste 51 Nordeste 0 -- -- 51
2020-01-20 11:00:00 1.8 27 Nordeste 42 Nordeste 0 -- -- 51
2020-01-20 10:00:00 1.2 25 Norte 42 Nordeste 0 -- -- 53
2020-01-20 09:00:00 1.2 26 Nordeste 44 Norte 0 -- -- 52
2020-01-20 08:00:00 1 25 Nordeste 48 Norte 0 -- -- 52
2020-01-20 07:00:00 1.1 30 Nordeste 48 Nordeste 0 -- -- 53
2020-01-20 06:00:00 1.1 30 Nordeste 44 Nordeste 0 -- -- 54
2020-01-20 05:00:00 1 30 Nordeste 55 Nordeste 0 -- -- 55
2020-01-20 04:00:00 1.1 35 Nordeste 55 Nordeste 0 -- -- 56
2020-01-20 03:00:00 1.4 38 Nordeste 54 Nordeste 0 -- -- 55
2020-01-20 02:00:00 1.6 36 Nordeste 51 Nordeste 0 -- -- 55
2020-01-20 01:00:00 2 33 Nordeste 52 Nordeste 0 -- -- 54
2020-01-20 00:00:00 2.3 28 Norte 44 Norte 0 -- -- 54
2020-01-19 23:00:00 2.5 30 Nordeste 50 Nordeste 0 -- -- 55
2020-01-19 22:00:00 2.7 37 Nordeste 58 Nordeste 0 -- -- 52
2020-01-19 21:00:00 3 37 Nordeste 54 Nordeste 0 -- -- 48
2020-01-19 20:00:00 4 28 Nordeste 46 Nordeste 0 -- -- 44
2020-01-19 19:00:00 5.4 34 Nordeste 53 Nordeste 0 -- -- 43
2020-01-19 18:00:00 6.4 27 Nordeste 46 Nordeste 0 -- -- 44
2020-01-19 17:00:00 6.6 24 Nordeste 46 Nordeste 0 -- -- 49
2020-01-19 16:00:00 6.6 29 Nordeste 56 Norte 0 -- -- 56
2020-01-19 15:00:00 7.2 41 Nordeste 68 Nordeste 0 -- -- 52
2020-01-19 14:00:00 6.9 31 Nordeste 59 Nordeste 0 -- -- 59
2020-01-19 13:00:00 7 33 Nordeste 58 Nordeste 0.2 -- -- 66
2020-01-19 12:00:00 6 27 Nordeste 41 Nordeste 0 -- -- 79
2020-01-19 11:00:00 5.6 22 Norte 35 Norte 0 -- -- 84
2020-01-19 10:00:00 4.8 15 Norte 32 Norte 0 -- -- 87
2020-01-19 09:00:00 4.4 12 Norte 21 Norte 0 -- -- 90
2020-01-19 08:00:00 3.2 3 Noroeste 10 Noroeste 0 -- -- 95
2020-01-19 07:00:00 2.7 6 Noroeste 12 Noroeste 0 -- -- 93
2020-01-19 06:00:00 3.6 4 Noroeste 12 Noroeste 0 -- -- 92
2020-01-19 05:00:00 4 4 Noroeste 15 Noroeste 0 -- -- 91
2020-01-19 04:00:00 5.1 9 Noroeste 18 Oeste 0 -- -- 89
2020-01-19 03:00:00 5.3 9 Noroeste 21 Noroeste 0 -- -- 87
2020-01-19 02:00:00 6.3 10 Noroeste 28 Noroeste 0 -- -- 86
2020-01-19 01:00:00 7.3 12 Noroeste 24 Noroeste 0 -- -- 96
2020-01-19 00:00:00 8.2 10 Noroeste 27 Noroeste 0 -- -- 99
2020-01-18 23:00:00 8.4 17 Noroeste 36 Oeste 0 -- -- 98
2020-01-18 22:00:00 8.6 17 Oeste 31 Oeste 0 -- -- 98
2020-01-18 21:00:00 8.8 8 Noroeste 24 Sudoeste 0 -- -- 95
2020-01-18 20:00:00 9.4 17 Sudoeste 30 Sudoeste 0 -- -- 92
2020-01-18 19:00:00 9.4 18 Sudoeste 26 Sudoeste 0 -- -- 93
2020-01-18 18:00:00 9.1 15 Sudoeste 30 Sudoeste 0 -- -- 95
2020-01-18 17:00:00 9.5 19 Sudoeste 32 Sur 0 -- -- 93
2020-01-18 16:00:00 9.8 21 Sudoeste 28 Sudoeste 0 -- -- 90
2020-01-18 15:00:00 9.3 19 Sudoeste 35 Sudoeste 0 -- -- 92
2020-01-18 14:00:00 9.6 23 Sudoeste 33 Sudoeste 0 -- -- 90
2020-01-18 13:00:00 8.5 18 Sur 27 Sur 0 -- -- 96
2020-01-18 12:00:00 7.4 17 Sur 24 Sur 0 -- -- 98
2020-01-18 11:00:00 5.9 8 Sudeste 16 Sur 0.4 -- -- 99
2020-01-18 10:00:00 5.1 9 Sur 13 Sudeste 0.2 -- -- 98
2020-01-18 09:00:00 4.7 2 Sudeste 14 Sur 0 -- -- 97
2020-01-18 08:00:00 4.9 8 Sudeste 13 Sur 1 -- -- 96
2020-01-18 07:00:00 4.8 5 Noroeste 17 Oeste 0 -- -- 96
2020-01-18 06:00:00 4.3 3 Sur 15 Este 0 -- -- 96
2020-01-18 05:00:00 4.2 7 Este 9 Este 0 -- -- 97
2020-01-18 04:00:00 4.2 4 Sudeste 11 Sudeste 0 -- -- 97
2020-01-18 03:00:00 3.8 5 Sur 8 Sudeste 0 -- -- 96
2020-01-18 02:00:00 4 5 Sudeste 9 Sudeste 0 -- -- 96
2020-01-18 01:00:00 4.3 5 Sudeste 10 Sudeste 0 -- -- 95
2020-01-18 00:00:00 4.9 4 Sur 9 Sudeste 0 -- -- 94
2020-01-17 23:00:00 4.4 3 Sudeste 9 Oeste 0 -- -- 93
2020-01-17 22:00:00 5.4 2 Sudoeste 12 Oeste 0 -- -- 90
2020-01-17 21:00:00 5.8 4 Noroeste 9 Oeste 0 -- -- 91
2020-01-17 20:00:00 5.7 4 Noroeste 9 Oeste 0 -- -- 88
2020-01-17 19:00:00 7.2 6 Oeste 14 Oeste 0 -- -- 83
2020-01-17 18:00:00 9.8 6 Oeste 22 Oeste 0 -- -- 75
2020-01-17 17:00:00 11.2 15 Oeste 27 Oeste 0 -- -- 71
2020-01-17 16:00:00 11.6 13 Oeste 26 Noroeste 0 -- -- 70
2020-01-17 15:00:00 10.7 17 Oeste 31 Noroeste 0 -- -- 74
2020-01-17 14:00:00 10.4 17 Oeste 34 Oeste 0 -- -- 76
2020-01-17 13:00:00 10.7 18 Oeste 34 Oeste 0 -- -- 72
2020-01-17 12:00:00 10 16 Oeste 35 Oeste 0 -- -- 79
2020-01-17 11:00:00 8.6 15 Oeste 31 Oeste 0 -- -- 85
2020-01-17 10:00:00 5.5 7 Oeste 13 Oeste 0 -- -- 92
2020-01-17 09:00:00 3.1 5 Oeste 9 Oeste 0 -- -- 93
2020-01-17 08:00:00 3.5 5 Oeste 12 Oeste 0 -- -- 88
2020-01-17 07:00:00 5.4 10 Sudoeste 19 Oeste 0 -- -- 85
2020-01-17 06:00:00 4.4 10 Sudoeste 17 Sudoeste 0 -- -- 84
2020-01-17 05:00:00 6.3 9 Oeste 19 Sudoeste 0 -- -- 81
2020-01-17 04:00:00 7.2 14 Oeste 23 Oeste 0 -- -- 73
2020-01-17 03:00:00 6 7 Oeste 18 Sudoeste 0 -- -- 72
2020-01-17 02:00:00 6.4 10 Sur 15 Sudoeste 0 -- -- 73
2020-01-17 01:00:00 5.1 6 Sur 14 Sur 0 -- -- 76
2020-01-17 00:00:00 5.3 10 Sur 18 Sur 0 -- -- 74
2020-01-16 23:00:00 5.4 16 Sur 22 Sudoeste 0 -- -- 72
2020-01-16 22:00:00 6 16 Sudoeste 18 Sudoeste 0 -- -- 71
2020-01-16 21:00:00 7.3 13 Sur 19 Sudoeste 0 -- -- 67
2020-01-16 20:00:00 8 12 Sudoeste 19 Sudoeste 0 -- -- 60
2020-01-16 19:00:00 8.3 16 Sudoeste 21 Sudoeste 0 -- -- 59
2020-01-16 18:00:00 11.3 16 Sudoeste 30 Sudoeste 0 -- -- 49
2020-01-16 17:00:00 13.8 23 Sudoeste 37 Sudoeste 0 -- -- 42
2020-01-16 16:00:00 14.5 16 Oeste 29 Sudoeste 0 -- -- 47
2020-01-16 15:00:00 14.4 8 Sur 22 Sudoeste 0 -- -- 56
2020-01-16 14:00:00 12.7 13 Sur 27 Sudoeste 0 -- -- 64
2020-01-16 13:00:00 11.7 20 Sudoeste 28 Sur 0 -- -- 66
2020-01-16 12:00:00 10.1 17 Sur 27 Sur 0 -- -- 79
2020-01-16 11:00:00 7.7 15 Sudeste 21 Sudeste 0 -- -- 86
2020-01-16 10:00:00 6.4 7 Sudeste 15 Sudeste 0 -- -- 89
2020-01-16 09:00:00 5.1 10 Sudeste 15 Sur 0 -- -- 93
2020-01-16 08:00:00 4.8 8 Sudeste 12 Sudeste 0 -- -- 93
2020-01-16 07:00:00 5.5 7 Sudeste 13 Sudeste 0 -- -- 92
2020-01-16 06:00:00 6.3 9 Sudeste 14 Sudeste 0 -- -- 93
2020-01-16 05:00:00 6.7 7 Sur 10 Sudeste 0 -- -- 91
2020-01-16 04:00:00 7 6 Sudeste 9 Sudeste 0 -- -- 91
2020-01-16 03:00:00 6.9 4 Sur 7 Sur 0 -- -- 91
2020-01-16 02:00:00 6.9 5 Sudeste 7 Sur 0 -- -- 91
2020-01-16 01:00:00 6.6 4 Sur 9 Sur 0 -- -- 91
2020-01-16 00:00:00 7.2 7 Sur 10 Sur 0 -- -- 89
2020-01-15 23:00:00 7.7 8 Sur 10 Sur 0 -- -- 88
2020-01-15 22:00:00 7.8 7 Sur 9 Sur 0 -- -- 87
2020-01-15 21:00:00 8.1 5 Sudeste 10 Sudeste 0 -- -- 85
2020-01-15 20:00:00 8.2 3 Sudeste 6 Sudeste 0 -- -- 85
2020-01-15 19:00:00 8 5 Nordeste 6 Nordeste 0 -- -- 84
2020-01-15 18:00:00 9.3 0 Calma 8 Noroeste 0 -- -- 81
2020-01-15 17:00:00 10 6 Noroeste 18 Sudoeste 0 -- -- 78
2020-01-15 16:00:00 10.7 6 Sudoeste 11 Sudoeste 0 -- -- 75
2020-01-15 15:00:00 11 5 Sudoeste 12 Sur 0 -- -- 73
2020-01-15 14:00:00 9.6 10 Sudoeste 16 Sudoeste 0 -- -- 76
2020-01-15 13:00:00 8.5 13 Sur 18 Sur 0 -- -- 79
2020-01-15 12:00:00 6.5 7 Sur 16 Sur 0 -- -- 87
2020-01-15 11:00:00 5 14 Sur 25 Sur 0 -- -- 91
2020-01-15 10:00:00 2.2 14 Sur 20 Sudeste 0 -- -- 98
2020-01-15 09:00:00 0.1 10 Sur 14 Sur 0 -- -- 97
2020-01-15 08:00:00 0.8 11 Sur 19 Sur 0 -- -- 97
2020-01-15 07:00:00 0.3 9 Sudeste 13 Sudeste 0 -- -- 96
2020-01-15 06:00:00 0.6 6 Sudeste 11 Sudeste 0 -- -- 95
2020-01-15 05:00:00 1.6 5 Sur 10 Sur 0 -- -- 93
2020-01-15 04:00:00 2.2 8 Sur 13 Sudeste 0 -- -- 93
2020-01-15 03:00:00 1.9 9 Sudeste 13 Sudeste 0 -- -- 91
2020-01-15 02:00:00 2.8 6 Sudeste 8 Sudeste 0 -- -- 91
2020-01-15 01:00:00 2.9 5 Sudeste 9 Sur 0 -- -- 89
2020-01-15 00:00:00 3 4 Sur 8 Sur 0 -- -- 90
2020-01-14 23:00:00 2.2 7 Sur 10 Sudeste 0 -- -- 89
2020-01-14 22:00:00 2.6 7 Sudeste 11 Sudeste 0 -- -- 86
2020-01-14 21:00:00 2.6 6 Sudeste 8 Sur 0 -- -- 83
2020-01-14 20:00:00 4 5 Sur 9 Sur 0 -- -- 79
2020-01-14 19:00:00 5 7 Sur 8 Sur 0 -- -- 75
2020-01-14 18:00:00 6.7 6 Sudoeste 11 Sudoeste 0 -- -- 72
2020-01-14 17:00:00 9.1 10 Sudoeste 21 Oeste 0 -- -- 64
2020-01-14 16:00:00 9.3 11 Oeste 22 Oeste 0 -- -- 64
2020-01-14 15:00:00 9.1 8 Oeste 16 Oeste 0 -- -- 61
2020-01-14 14:00:00 8.3 6 Oeste 12 Sudoeste 0 -- -- 66
2020-01-14 13:00:00 7.6 2 Sur 10 Sur 0 -- -- 72
2020-01-14 12:00:00 5.8 6 Sur 10 Sudoeste 0 -- -- 77
2020-01-14 11:00:00 3 8 Sudeste 14 Sudeste 0 -- -- 88
2020-01-14 10:00:00 -0.2 9 Sudeste 13 Sudeste 0 -- -- 94
2020-01-14 09:00:00 -2.4 5 Sudeste 8 Sudeste 0 -- -- 95
2020-01-14 08:00:00 -2.5 6 Sudeste 11 Sudeste 0 -- -- 93
2020-01-14 07:00:00 -2.4 7 Sudeste 13 Sudeste 0 -- -- 93
2020-01-14 06:00:00 -2.2 8 Sudeste 12 Sudeste 0 -- -- 93
2020-01-14 05:00:00 -2.4 8 Sudeste 10 Sudeste 0 -- -- 92
2020-01-14 04:00:00 -1.9 7 Sudeste 10 Sur 0 -- -- 92
2020-01-14 03:00:00 -2.3 4 Sudeste 7 Sudeste 0 -- -- 91
2020-01-14 02:00:00 -1.4 0 Calma 4 Oeste 0 -- -- 89
2020-01-14 01:00:00 -0.8 2 Oeste 3 Oeste 0 -- -- 90
2020-01-14 00:00:00 0 2 Oeste 8 Oeste 0 -- -- 82
2020-01-13 23:00:00 1.8 2 Oeste 6 Noroeste 0 -- -- 80
2020-01-13 22:00:00 0.7 3 Norte 4 Norte 0 -- -- 83
2020-01-13 21:00:00 0.5 2 Sur 5 Noroeste 0 -- -- 79
2020-01-13 20:00:00 3.1 0 Calma 5 Noroeste 0 -- -- 75
2020-01-13 19:00:00 4.2 4 Oeste 5 Oeste 0 -- -- 73
2020-01-13 18:00:00 6 4 Noroeste 11 Oeste 0 -- -- 70
2020-01-13 17:00:00 8.1 8 Oeste 15 Oeste 0 -- -- 62
2020-01-13 16:00:00 8.8 8 Oeste 14 Oeste 0 -- -- 59
2020-01-13 15:00:00 8.4 5 Noroeste 12 Noroeste 0 -- -- 64
2020-01-13 14:00:00 8.1 4 Oeste 9 Sudoeste 0 -- -- 66
2020-01-13 13:00:00 6.5 5 Sur 13 Sur 0 -- -- 71
2020-01-13 12:00:00 4.5 10 Sur 14 Sur 0 -- -- 77
2020-01-13 11:00:00 3.2 8 Sur 14 Sur 0 -- -- 83
2020-01-13 10:00:00 0.4 6 Sudeste 13 Sudeste 0 -- -- 89
2020-01-13 09:00:00 -1.7 8 Sudeste 14 Sudeste 0 -- -- 89
2020-01-13 08:00:00 -2.2 9 Sudeste 14 Sudeste 0 -- -- 90
2020-01-13 07:00:00 -3 8 Sudeste 10 Sudeste 0 -- -- 94
2020-01-13 06:00:00 -3.8 3 Sudeste 7 Este 0 -- -- 93
2020-01-13 05:00:00 -3.8 3 Sudeste 9 Este 0 -- -- 93
2020-01-13 04:00:00 -3.8 4 Sudeste 9 Este 0 -- -- 93
2020-01-13 03:00:00 -3.6 4 Este 6 Este 0 -- -- 92
2020-01-13 02:00:00 -2.3 3 Sudeste 9 Sudeste 0 -- -- 91
2020-01-13 01:00:00 -2.2 0 Calma 3 Sudeste 0 -- -- 90
2020-01-13 00:00:00 -2 3 Sudeste 5 Sudeste 0 -- -- 90
2020-01-12 23:00:00 -1.7 2 Este 4 Este 0 -- -- 87
2020-01-12 22:00:00 -0.8 0 Calma 2 Este 0 -- -- 86
2020-01-12 21:00:00 -0.6 0 Calma 4 Este 0 -- -- 84
2020-01-12 20:00:00 2 0 Calma 3 Oeste 0 -- -- 78
2020-01-12 19:00:00 4.1 3 Noroeste 6 Oeste 0 -- -- 73
2020-01-12 18:00:00 6.8 3 Noroeste 10 Oeste 0 -- -- 64
2020-01-12 17:00:00 8.7 6 Oeste 16 Noroeste 0 -- -- 60
2020-01-12 16:00:00 9 8 Noroeste 22 Oeste 0 -- -- 56
2020-01-12 15:00:00 8.9 9 Noroeste 17 Oeste 0 -- -- 57
2020-01-12 14:00:00 8.6 6 Noroeste 17 Noroeste 0 -- -- 62
2020-01-12 13:00:00 8 6 Oeste 11 Oeste 0 -- -- 65
2020-01-12 12:00:00 6.8 4 Sur 7 Sudoeste 0 -- -- 76
2020-01-12 11:00:00 3.9 4 Sur 7 Sudeste 0 -- -- 85
2020-01-12 10:00:00 0.5 4 Sudeste 6 Sudeste 0 -- -- 97
2020-01-12 09:00:00 -3.3 3 Sudeste 6 Sudeste 0 -- -- 96
2020-01-12 08:00:00 -3.6 3 Sudeste 5 Sudeste 0 -- -- 95
2020-01-12 07:00:00 -3.7 2 Sudeste 7 Sudeste 0 -- -- 94
2020-01-12 06:00:00 -3.6 3 Sudeste 6 Sudeste 0 -- -- 93
2020-01-12 05:00:00 -3 0 Calma 2 Sudeste 0 -- -- 91
2020-01-12 04:00:00 -1.7 0 Calma 2 Sur 0 -- -- 94
2020-01-12 03:00:00 -2.3 0 Calma -- -- 0 -- -- 91
2020-01-12 02:00:00 -2 0 Calma 2 Este 0 -- -- 91
2020-01-12 01:00:00 -1.5 0 Calma 2 Este 0 -- -- 89
2020-01-12 00:00:00 -0.8 0 Calma 5 Noroeste 0 -- -- 87
2020-01-11 23:00:00 1 4 Oeste 5 Noroeste 0 -- -- 88
2020-01-11 22:00:00 0.4 2 Oeste 2 Oeste 0 -- -- 85
2020-01-11 21:00:00 1.8 3 Sudoeste -- -- 0 -- -- 83
2020-01-11 20:00:00 2.5 2 Sur 5 Sur 0 -- -- 80
2020-01-11 19:00:00 5 0 Calma 4 Noroeste 0 -- -- 70
2020-01-11 18:00:00 8 3 Noroeste 5 Oeste 0 -- -- 64
2020-01-11 17:00:00 9.7 4 Oeste 8 Noroeste 0 -- -- 57
2020-01-11 16:00:00 9.7 3 Noroeste 6 Noroeste 0 -- -- 58
2020-01-11 15:00:00 9.3 3 Noroeste 8 Oeste 0 -- -- 59
2020-01-11 14:00:00 8.4 4 Noroeste 9 Norte 0 -- -- 63
2020-01-11 13:00:00 7.8 3 Norte 8 Norte 0 -- -- 66
2020-01-11 12:00:00 6.4 3 Norte 12 Este 0 -- -- 72
2020-01-11 11:00:00 4.3 10 Nordeste 14 Nordeste 0 -- -- 81
2020-01-11 10:00:00 2.1 8 Nordeste 12 Nordeste 0 -- -- 87
2020-01-11 09:00:00 -1.2 5 Norte 9 Norte 0 -- -- 93
2020-01-11 08:00:00 -0.9 3 Noroeste 10 Norte 0 -- -- 90
2020-01-11 07:00:00 -0.5 7 Norte 9 Norte 0 -- -- 90
2020-01-11 06:00:00 0.2 8 Norte 14 Norte 0 -- -- 88
2020-01-11 05:00:00 0.3 9 Nordeste 15 Nordeste 0 -- -- 89
2020-01-11 04:00:00 1.4 12 Nordeste 16 Nordeste 0 -- -- 84
2020-01-11 03:00:00 1.5 11 Norte 15 Norte 0 -- -- 84
2020-01-11 02:00:00 1.7 11 Nordeste 22 Norte 0 -- -- 82
2020-01-11 01:00:00 2.2 13 Nordeste 20 Nordeste 0 -- -- 81
2020-01-11 00:00:00 2.7 13 Nordeste 18 Nordeste 0 -- -- 78
2020-01-10 23:00:00 2.9 8 Nordeste 17 Norte 0 -- -- 75
2020-01-10 22:00:00 4.6 13 Norte 22 Norte 0 -- -- 70
2020-01-10 21:00:00 5.2 14 Norte 22 Norte 0 -- -- 68
2020-01-10 20:00:00 5.7 14 Norte 21 Norte 0 -- -- 65
2020-01-10 19:00:00 5.8 10 Norte 17 Nordeste 0 -- -- 65
2020-01-10 18:00:00 7.6 11 Norte 31 Nordeste 0 -- -- 59
2020-01-10 17:00:00 9.3 21 Nordeste 35 Nordeste 0 -- -- 52
2020-01-10 16:00:00 10.1 22 Nordeste 32 Norte 0 -- -- 49
2020-01-10 15:00:00 10 23 Nordeste 34 Norte 0 -- -- 53
2020-01-10 14:00:00 9.2 21 Norte 30 Norte 0 -- -- 59
2020-01-10 13:00:00 8.2 18 Nordeste 28 Norte 0 -- -- 67
2020-01-10 12:00:00 7 11 Nordeste 19 Nordeste 0 -- -- 73
2020-01-10 11:00:00 5.7 9 Nordeste 14 Norte 0 -- -- 76
2020-01-10 10:00:00 3.5 9 Nordeste 19 Norte 0 -- -- 86
2020-01-10 09:00:00 2.7 13 Norte 19 Norte 0 -- -- 88
2020-01-10 08:00:00 1.7 7 Norte 12 Noroeste 0 -- -- 91
2020-01-10 07:00:00 1.7 3 Noroeste 6 Noroeste 0 -- -- 93
2020-01-10 06:00:00 1.2 3 Norte 5 Norte 0 -- -- 95
2020-01-10 05:00:00 1.5 3 Norte 5 Norte 0 -- -- 95
2020-01-10 04:00:00 2 5 Noroeste 7 Noroeste 0 -- -- 93
2020-01-10 03:00:00 2.8 5 Noroeste 15 Oeste 0 -- -- 92
2020-01-10 02:00:00 3.4 3 Oeste 12 Oeste 0 -- -- 92
2020-01-10 01:00:00 3.6 8 Noroeste 13 Noroeste 0 -- -- 93
2020-01-10 00:00:00 3.6 4 Oeste 7 Sudoeste 0 -- -- 92
2020-01-09 23:00:00 5.5 5 Sudoeste 12 Oeste 0 -- -- 86
2020-01-09 22:00:00 6.3 6 Oeste 10 Noroeste 0 -- -- 89
2020-01-09 21:00:00 5.5 0 Calma 3 Noroeste 0 -- -- 91
2020-01-09 20:00:00 5.1 0 Calma 4 Sur 0 -- -- 90
2020-01-09 19:00:00 6 4 Sudeste 11 Sur 0 -- -- 85
2020-01-09 18:00:00 8.1 6 Sur 10 Sur 0 -- -- 78
2020-01-09 17:00:00 10 7 Sur 14 Sur 0 -- -- 72
2020-01-09 16:00:00 10 10 Sur 15 Sur 0 -- -- 69
2020-01-09 15:00:00 10.2 6 Sur 11 Sur 0 -- -- 70
2020-01-09 14:00:00 10 4 Sur 19 Sudeste 0 -- -- 74
2020-01-09 13:00:00 9.4 12 Sudeste 19 Sudeste 0 -- -- 74
2020-01-09 12:00:00 8.2 8 Sudeste 14 Sudeste 0 -- -- 77
2020-01-09 11:00:00 6.6 15 Sudeste 22 Sudeste 0 -- -- 80
2020-01-09 10:00:00 3.8 8 Este 13 Este 0 -- -- 93
2020-01-09 09:00:00 0.5 7 Nordeste 12 Este 0 -- -- 94
2020-01-09 08:00:00 0.5 10 Este 12 Este 0 -- -- 93
2020-01-09 07:00:00 0.8 8 Este 14 Este 0 -- -- 91
2020-01-09 06:00:00 0.7 9 Este 12 Este 0 -- -- 92
2020-01-09 05:00:00 1.4 9 Este 13 Este 0 -- -- 90
2020-01-09 04:00:00 2.6 10 Este 13 Este 0 -- -- 89
2020-01-09 03:00:00 2.5 7 Este 9 Este 0 -- -- 90
2020-01-09 02:00:00 2.4 8 Este 13 Este 0 -- -- 90
2020-01-09 01:00:00 3.5 10 Este 13 Este 0 -- -- 86
2020-01-09 00:00:00 4.7 9 Sudeste 21 Este 0 -- -- 85
2020-01-08 23:00:00 6.1 13 Sudeste 20 Sudeste 0 -- -- 81
2020-01-08 22:00:00 6.2 9 Sudeste 21 Sudeste 0 -- -- 79
2020-01-08 21:00:00 7.1 11 Sudeste 19 Sudeste 0 -- -- 69
2020-01-08 20:00:00 7 6 Sudeste 9 Sudeste 0 -- -- 70
2020-01-08 19:00:00 8.3 7 Sudeste 9 Sudeste 0 -- -- 67
2020-01-08 18:00:00 10.9 8 Sur 19 Sur 0 -- -- 60
2020-01-08 17:00:00 14.1 6 Sur 14 Sudoeste 0 -- -- 55
2020-01-08 16:00:00 15.6 5 Sudeste 12 Este 0 -- -- 42
2020-01-08 15:00:00 14.6 6 Este 10 Este 0 -- -- 37
2020-01-08 14:00:00 13.5 6 Este 11 Este 0 -- -- 38
2020-01-08 13:00:00 11.6 6 Nordeste 9 Este 0 -- -- 47
2020-01-08 12:00:00 9.3 4 Nordeste 9 Nordeste 0 -- -- 62
2020-01-08 11:00:00 7.6 4 Nordeste 6 Norte 0 -- -- 66
2020-01-08 10:00:00 3.9 2 Este 6 Nordeste 0 -- -- 97
2020-01-08 09:00:00 0.2 4 Este 5 Este 0 -- -- 94
2020-01-08 08:00:00 0 2 Este 4 Este 0 -- -- 94
2020-01-08 07:00:00 0.2 2 Este 5 Este 0 -- -- 93
2020-01-08 06:00:00 0.5 3 Este 5 Nordeste 0 -- -- 92
2020-01-08 05:00:00 1.7 0 Calma 5 Noroeste 0 -- -- 90
2020-01-08 04:00:00 2.6 4 Noroeste 5 Noroeste 0 -- -- 95
2020-01-08 03:00:00 1 3 Este 7 Nordeste 0 -- -- 93
2020-01-08 02:00:00 0.6 5 Este 7 Este 0 -- -- 92
2020-01-08 01:00:00 1.3 3 Nordeste -- -- 0 -- -- 87
2020-01-08 00:00:00 3.6 3 Noroeste 6 Norte 0 -- -- 84
2020-01-07 23:00:00 4.7 3 Norte 5 Noroeste 0 -- -- 82
2020-01-07 22:00:00 5.9 4 Noroeste 6 Noroeste 0 -- -- 78
2020-01-07 21:00:00 5.9 4 Noroeste 5 Noroeste 0 -- -- 73
2020-01-07 20:00:00 6.7 4 Noroeste 6 Noroeste 0 -- -- 72
2020-01-07 19:00:00 7.2 2 Noroeste 6 Noroeste 0 -- -- 74
2020-01-07 18:00:00 10 4 Noroeste 7 Noroeste 0 -- -- 67
2020-01-07 17:00:00 12.3 4 Noroeste 9 Noroeste 0 -- -- 54
2020-01-07 16:00:00 13.2 3 Noroeste 7 Noroeste 0 -- -- 61
2020-01-07 15:00:00 12.6 3 Oeste 8 Noroeste 0 -- -- 63
2020-01-07 14:00:00 12 2 Noroeste 6 Oeste 0 -- -- 57
2020-01-07 13:00:00 11.3 0 Calma 6 Sudeste 0 -- -- 57
2020-01-07 12:00:00 9.3 2 Sudeste 5 Sudeste 0 -- -- 73
2020-01-07 11:00:00 6.6 0 Calma 5 Norte 0 -- -- 87
2020-01-07 10:00:00 2.6 0 Calma -- -- 0 -- -- 99
2020-01-07 09:00:00 -0.3 0 Calma 5 Nordeste 0 -- -- 97
2020-01-07 08:00:00 0.1 5 Nordeste 6 Nordeste 0 -- -- 96
2020-01-07 07:00:00 1.6 3 Norte 5 Norte 0 -- -- 97
2020-01-07 06:00:00 0.5 3 Nordeste 5 Nordeste 0 -- -- 96
2020-01-07 05:00:00 0.7 3 Norte 5 Nordeste 0 -- -- 94
2020-01-07 04:00:00 2.4 3 Norte 6 Norte 0 -- -- 93
2020-01-07 03:00:00 2.7 4 Noroeste 8 Noroeste 0 -- -- 94
2020-01-07 02:00:00 1 4 Noroeste 5 Noroeste 0 -- -- 92
2020-01-07 01:00:00 1.6 4 Nordeste 8 Norte 0 -- -- 90
2020-01-07 00:00:00 1.9 8 Norte 9 Nordeste 0 -- -- 91
2020-01-06 23:00:00 2.5 5 Nordeste 6 Nordeste 0 -- -- 89
2020-01-06 22:00:00 3.9 3 Nordeste 6 Norte 0 -- -- 84
2020-01-06 21:00:00 4.9 5 Norte 9 Noroeste 0 -- -- 86
2020-01-06 20:00:00 5.5 4 Noroeste 7 Noroeste 0 -- -- 83
2020-01-06 19:00:00 6.9 3 Noroeste 7 Norte 0 -- -- 80
2020-01-06 18:00:00 10.2 2 Noroeste 6 Noroeste 0 -- -- 68
2020-01-06 17:00:00 13.3 3 Sur 7 Este 0 -- -- 51
2020-01-06 16:00:00 13 0 Calma 8 Norte 0 -- -- 51
2020-01-06 15:00:00 12.1 4 Nordeste 7 Nordeste 0 -- -- 52
2020-01-06 14:00:00 12 3 Sur 8 Sudeste 0 -- -- 55
2020-01-06 13:00:00 10 3 Nordeste 6 Sudeste 0 -- -- 64
2020-01-06 12:00:00 8.7 2 Este 9 Sudeste 0 -- -- 67
2020-01-06 11:00:00 5.7 4 Este 7 Nordeste 0 -- -- 82
2020-01-06 10:00:00 2.2 5 Nordeste 8 Nordeste 0 -- -- 94